KAVP/AVP METAR and TAF weather

Enter ICAO airport designator
Station Type Date Time Source
KAVP METAR 2022/01/23 10:54 UTC NOAA

KAVP 231054Z 00000KT 10SM CLR M07/M15 A2992 RMK AO2 SLP143 T10671150


Station Type Date Time Source
KAVP Decoded METAR 2022/01/23 10:54 UTC NOAA

WILKES-BARRE/SCRANTON INTERNATIONAL , PA, United States (KAVP) 41-20N 75-44W 291M
Jan 23, 2022 - 05:54 AM EST / 2022.01.23 1054 UTC
Wind: Calm:0
Visibility: 10 mile(s):0
Sky conditions: clear
Temperature: 19.9 F (-6.7 C)
Dew Point: 5.0 F (-15.0 C)
Relative Humidity: 51%
Pressure (altimeter): 29.92 in. Hg (1013 hPa)
ob: KAVP 231054Z 00000KT 10SM CLR M07/M15 A2992 RMK AO2 SLP143 T10671150
cycle: 11

Station Type Date Time Source
KAVP TAF 2022/01/23 09:09 UTC NOAA

TAF
AMD KAVP 230906Z 2309/2406 21005KT P6SM SCT040 BKN200
FM231500 24007G14KT P6SM OVC045
FM232000 24006KT 4SM -SHSN BR OVC035
TEMPO 2323/2402 VRB03KT 2SM -SHSN BR OVC025
FM240200 30005KT P6SM OVC025

Example: see airport list